Time,TemperatureF,DewpointF,PressureIn,WindDirection,WindDirectionDegrees,WindSpeedMPH,WindSpeedGustMPH,Humidity,HourlyPrecipIn,Conditions,Clouds,dailyrainin,SoftwareType,DateUTC
2013-08-30 00:00:00,67.8,66.9,29.82,SW,225,3.4,3.4,97,0.00,,CLR,0.00,VWS V14.01,2013-08-30 04:00:00,
2013-08-30 00:01:00,68.0,66.8,29.82,SW,225,3.4,3.4,96,0.00,,CLR,0.00,VWS V14.01,2013-08-30 04:01:00,
2013-08-30 00:03:00,68.0,66.8,29.82,SW,225,3.4,3.4,96,0.00,,CLR,0.00,VWS V14.01,2013-08-30 04:03:00,
2013-08-30 00:05:00,68.0,67.1,29.79,SW,225,3.4,3.4,97,0.00,,CLR,0.00,VWS V14.01,2013-08-30 04:05:00,
2013-08-30 00:06:00,68.0,67.1,29.79,SW,225,3.4,3.4,97,0.00,,CLR,0.00,VWS V14.01,2013-08-30 04:06:00,
2013-08-30 00:10:00,67.6,66.8,29.79,SW,225,3.4,3.4,97,0.00,,CLR,0.00,VWS V14.01,2013-08-30 04:10:00,
2013-08-30 00:15:00,67.5,66.3,29.79,SW,225,3.4,3.4,96,0.00,,CLR,0.00,VWS V14.01,2013-08-30 04:15:00,
2013-08-30 00:17:00,67.5,66.3,29.79,SW,225,3.4,3.4,96,0.00,,CLR,0.00,VWS V14.01,2013-08-30 04:17:00,
2013-08-30 00:22:00,67.6,66.5,29.82,SW,225,3.4,3.4,96,0.00,,CLR,0.00,VWS V14.01,2013-08-30 04:22:00,
2013-08-30 00:27:00,67.6,66.8,29.82,SW,225,3.4,3.4,97,0.00,,CLR,0.00,VWS V14.01,2013-08-30 04:27:00,
2013-08-30 00:32:00,68.2,67.3,29.82,SW,225,3.4,3.4,97,0.00,,CLR,0.00,VWS V14.01,2013-08-30 04:32:00,
2013-08-30 00:37:00,68.4,67.5,29.82,SW,225,3.4,3.4,97,0.00,,CLR,0.00,VWS V14.01,2013-08-30 04:37:00,
2013-08-30 00:40:00,68.5,67.7,29.82,SW,225,3.4,3.4,97,0.00,,CLR,0.00,VWS V14.01,2013-08-30 04:40:00,
2013-08-30 00:42:00,68.5,67.7,29.82,SW,225,3.4,3.4,97,0.00,,CLR,0.00,VWS V14.01,2013-08-30 04:42:00,
2013-08-30 00:45:00,68.7,68.1,29.82,SW,225,3.4,3.4,98,0.00,,CLR,0.00,VWS V14.01,2013-08-30 04:45:00,
2013-08-30 00:47:00,68.7,68.1,29.82,SW,225,3.4,3.4,98,0.00,,CLR,0.00,VWS V14.01,2013-08-30 04:47:00,
2013-08-30 00:52:00,69.1,68.5,29.82,SW,225,3.4,3.4,98,0.00,,CLR,0.00,VWS V14.01,2013-08-30 04:52:00,
2013-08-30 00:57:00,69.3,68.7,29.82,SW,225,3.4,3.4,98,0.00,,CLR,0.00,VWS V14.01,2013-08-30 04:57:00,
2013-08-30 01:00:00,69.3,68.7,29.82,SW,225,3.4,3.4,98,0.00,,CLR,0.00,VWS V14.01,2013-08-30 05:00:00,
2013-08-30 01:02:00,69.4,68.8,29.82,SW,225,3.4,3.4,98,0.00,,CLR,0.00,VWS V14.01,2013-08-30 05:02:00,
2013-08-30 01:07:00,69.6,69.0,29.85,SW,225,3.4,3.4,98,0.00,,CLR,0.00,VWS V14.01,2013-08-30 05:07:00,
2013-08-30 01:12:00,69.4,68.8,29.85,SW,225,3.4,3.4,98,0.00,,CLR,0.00,VWS V14.01,2013-08-30 05:12:00,
2013-08-30 01:17:00,69.4,68.8,29.85,SW,225,3.4,3.4,98,0.00,,CLR,0.00,VWS V14.01,2013-08-30 05:17:00,
2013-08-30 01:22:00,69.4,68.8,29.82,SW,225,3.4,3.4,98,0.00,,CLR,0.00,VWS V14.01,2013-08-30 05:22:00,
2013-08-30 01:27:00,69.4,68.8,29.82,SW,225,3.4,3.4,98,0.00,,CLR,0.00,VWS V14.01,2013-08-30 05:27:00,
2013-08-30 01:32:00,69.3,68.7,29.82,SW,225,3.4,3.4,98,0.00,,CLR,0.00,VWS V14.01,2013-08-30 05:32:00,
2013-08-30 01:37:00,69.3,68.7,29.79,SW,225,3.4,3.4,98,0.00,,CLR,0.00,VWS V14.01,2013-08-30 05:37:00,
2013-08-30 01:42:00,69.4,68.8,29.79,SW,225,3.4,3.4,98,0.00,,CLR,0.00,VWS V14.01,2013-08-30 05:42:00,
2013-08-30 01:47:00,69.6,69.0,29.79,SW,225,3.4,3.4,98,0.00,,CLR,0.00,VWS V14.01,2013-08-30 05:47:00,
2013-08-30 01:52:00,69.6,69.0,29.79,SW,225,3.4,3.4,98,0.00,,CLR,0.00,VWS V14.01,2013-08-30 05:52:00,
2013-08-30 01:57:00,69.8,69.2,29.79,SW,225,3.4,3.4,98,0.00,,CLR,0.00,VWS V14.01,2013-08-30 05:57:00,
2013-08-30 02:00:00,69.8,69.2,29.80,SW,225,3.4,3.4,98,0.00,,CLR,0.00,VWS V14.01,2013-08-30 06:00:00,
2013-08-30 02:02:00,69.8,69.2,29.79,SW,225,3.4,3.4,98,0.00,,CLR,0.00,VWS V14.01,2013-08-30 06:02:00,
2013-08-30 02:07:00,69.8,69.2,29.79,SW,225,3.4,3.4,98,0.00,,CLR,0.00,VWS V14.01,2013-08-30 06:07:00,
2013-08-30 02:12:00,69.8,69.2,29.79,SW,225,3.4,3.4,98,0.00,,CLR,0.00,VWS V14.01,2013-08-30 06:12:00,
2013-08-30 02:17:00,69.6,69.0,29.79,SW,225,3.4,3.4,98,0.00,,CLR,0.00,VWS V14.01,2013-08-30 06:17:00,
2013-08-30 02:22:00,69.6,69.0,29.79,SW,225,3.4,3.4,98,0.00,,CLR,0.00,VWS V14.01,2013-08-30 06:22:00,
2013-08-30 02:27:00,69.6,69.0,29.79,SW,225,3.4,3.4,98,0.00,,CLR,0.00,VWS V14.01,2013-08-30 06:27:00,
2013-08-30 02:32:00,69.6,69.0,29.79,SW,225,3.4,3.4,98,0.00,,CLR,0.00,VWS V14.01,2013-08-30 06:32:00,
2013-08-30 02:37:00,69.6,69.0,29.79,SW,225,3.4,3.4,98,0.00,,CLR,0.00,VWS V14.01,2013-08-30 06:37:00,
2013-08-30 02:42:00,69.6,69.0,29.79,SW,225,3.4,3.4,98,0.00,,CLR,0.00,VWS V14.01,2013-08-30 06:42:00,
2013-08-30 02:47:00,69.4,68.8,29.79,SW,225,3.4,3.4,98,0.00,,CLR,0.00,VWS V14.01,2013-08-30 06:47:00,
2013-08-30 02:52:00,69.4,68.8,29.79,SW,225,3.4,3.4,98,0.00,,CLR,0.00,VWS V14.01,2013-08-30 06:52:00,
2013-08-30 02:57:00,69.6,69.0,29.79,SW,225,3.4,3.4,98,0.00,,CLR,0.00,VWS V14.01,2013-08-30 06:57:00,
2013-08-30 03:00:00,69.6,69.0,29.80,SW,225,3.4,3.4,98,0.00,,CLR,0.00,VWS V14.01,2013-08-30 07:00:00,
2013-08-30 03:02:00,69.6,69.0,29.79,SW,225,3.4,3.4,98,0.00,,CLR,0.00,VWS V14.01,2013-08-30 07:02:00,
2013-08-30 03:07:00,69.6,69.0,29.79,SW,225,3.4,3.4,98,0.00,,CLR,0.00,VWS V14.01,2013-08-30 07:07:00,
2013-08-30 03:12:00,69.4,68.8,29.79,SW,225,3.4,3.4,98,0.00,,CLR,0.00,VWS V14.01,2013-08-30 07:12:00,
2013-08-30 03:17:00,69.4,68.8,29.79,SW,225,3.4,3.4,98,0.00,,CLR,0.00,VWS V14.01,2013-08-30 07:17:00,
2013-08-30 03:23:00,69.4,68.8,29.79,SW,225,3.4,3.4,98,0.00,,CLR,0.00,VWS V14.01,2013-08-30 07:23:00,
2013-08-30 03:28:00,69.6,69.0,29.79,SW,225,3.4,3.4,98,0.00,,CLR,0.00,VWS V14.01,2013-08-30 07:28:00,
2013-08-30 03:33:00,69.4,68.8,29.79,SW,225,3.4,3.4,98,0.00,,CLR,0.00,VWS V14.01,2013-08-30 07:33:00,
2013-08-30 03:38:00,69.3,68.7,29.79,SW,225,3.4,3.4,98,0.00,,CLR,0.00,VWS V14.01,2013-08-30 07:38:00,
2013-08-30 03:43:00,69.1,68.5,29.79,SW,225,3.4,3.4,98,0.00,,CLR,0.00,VWS V14.01,2013-08-30 07:43:00,
2013-08-30 03:48:00,68.9,68.3,29.79,SW,225,3.4,3.4,98,0.00,,CLR,0.00,VWS V14.01,2013-08-30 07:48:00,
2013-08-30 03:53:00,69.1,68.5,29.79,SW,225,3.4,3.4,98,0.00,,CLR,0.00,VWS V14.01,2013-08-30 07:53:00,
2013-08-30 03:58:00,69.1,68.5,29.79,SW,225,3.4,3.4,98,0.00,,CLR,0.00,VWS V14.01,2013-08-30 07:58:00,
2013-08-30 04:00:00,69.1,68.5,29.80,SW,225,3.4,3.4,98,0.00,,CLR,0.00,VWS V14.01,2013-08-30 08:00:00,
2013-08-30 04:03:00,69.1,68.5,29.79,SW,225,3.4,3.4,98,0.00,,CLR,0.00,VWS V14.01,2013-08-30 08:03:00,
2013-08-30 04:08:00,69.1,68.5,29.79,SW,225,3.4,3.4,98,0.00,,CLR,0.00,VWS V14.01,2013-08-30 08:08:00,
2013-08-30 04:13:00,68.7,68.1,29.79,SW,225,3.4,3.4,98,0.00,,CLR,0.00,VWS V14.01,2013-08-30 08:13:00,
2013-08-30 04:18:00,68.7,68.1,29.79,SW,225,3.4,3.4,98,0.00,,CLR,0.00,VWS V14.01,2013-08-30 08:18:00,
2013-08-30 04:23:00,68.5,67.7,29.79,SW,225,3.4,3.4,97,0.00,,CLR,0.00,VWS V14.01,2013-08-30 08:23:00,
2013-08-30 04:28:00,68.5,67.7,29.79,SW,225,3.4,3.4,97,0.00,,CLR,0.00,VWS V14.01,2013-08-30 08:28:00,
2013-08-30 04:33:00,68.5,67.7,29.79,SW,225,3.4,3.4,97,0.00,,CLR,0.00,VWS V14.01,2013-08-30 08:33:00,
2013-08-30 04:38:00,68.5,67.7,29.79,SW,225,3.4,3.4,97,0.00,,CLR,0.00,VWS V14.01,2013-08-30 08:38:00,
2013-08-30 04:43:00,68.5,67.7,29.79,SW,225,3.4,3.4,97,0.00,,CLR,0.00,VWS V14.01,2013-08-30 08:43:00,
2013-08-30 04:48:00,68.4,67.2,29.79,SW,225,3.4,3.4,96,0.00,,CLR,0.00,VWS V14.01,2013-08-30 08:48:00,
2013-08-30 04:53:00,68.4,67.2,29.79,SW,225,3.4,3.4,96,0.00,,CLR,0.00,VWS V14.01,2013-08-30 08:53:00,
2013-08-30 04:58:00,68.4,67.2,29.79,SW,225,3.4,3.4,96,0.00,,CLR,0.00,VWS V14.01,2013-08-30 08:58:00,
2013-08-30 05:00:00,68.4,67.2,29.80,SW,225,3.4,3.4,96,0.00,,CLR,0.00,VWS V14.01,2013-08-30 09:00:00,
2013-08-30 05:03:00,68.2,66.7,29.79,SW,225,3.4,3.4,95,0.00,,CLR,0.00,VWS V14.01,2013-08-30 09:03:00,
2013-08-30 05:08:00,68.0,66.5,29.79,SW,225,3.4,3.4,95,0.00,,CLR,0.00,VWS V14.01,2013-08-30 09:08:00,
2013-08-30 05:13:00,68.0,66.5,29.79,SW,225,3.4,3.4,95,0.00,,CLR,0.00,VWS V14.01,2013-08-30 09:13:00,
2013-08-30 05:18:00,67.8,66.3,29.79,SW,225,3.4,3.4,95,0.00,,CLR,0.00,VWS V14.01,2013-08-30 09:18:00,
2013-08-30 05:23:00,67.6,66.2,29.79,SW,225,3.4,3.4,95,0.00,,CLR,0.00,VWS V14.01,2013-08-30 09:23:00,
2013-08-30 05:28:00,67.6,66.2,29.79,SW,225,3.4,3.4,95,0.00,,CLR,0.00,VWS V14.01,2013-08-30 09:28:00,
2013-08-30 05:33:00,67.8,66.3,29.79,SW,225,3.4,3.4,95,0.00,,CLR,0.00,VWS V14.01,2013-08-30 09:33:00,
2013-08-30 05:38:00,68.0,66.2,29.79,SW,225,3.4,3.4,94,0.00,,CLR,0.00,VWS V14.01,2013-08-30 09:38:00,
2013-08-30 05:43:00,68.2,66.4,29.79,SW,225,3.4,3.4,94,0.00,,CLR,0.00,VWS V14.01,2013-08-30 09:43:00,
2013-08-30 05:48:00,68.2,66.1,29.79,SW,225,3.4,3.4,93,0.00,,CLR,0.00,VWS V14.01,2013-08-30 09:48:00,
2013-08-30 05:53:00,68.4,66.3,29.79,SW,225,3.4,3.4,93,0.00,,CLR,0.00,VWS V14.01,2013-08-30 09:53:00,
2013-08-30 05:58:00,68.4,65.9,29.79,SW,225,3.4,3.4,92,0.00,,CLR,0.00,VWS V14.01,2013-08-30 09:58:00,
2013-08-30 06:00:00,68.5,66.1,29.80,SW,225,3.4,3.4,92,0.00,,CLR,0.00,VWS V14.01,2013-08-30 10:00:00,
2013-08-30 06:03:00,68.5,66.1,29.79,SW,225,3.4,3.4,92,0.00,,CLR,0.00,VWS V14.01,2013-08-30 10:03:00,
2013-08-30 06:08:00,68.5,65.8,29.79,SW,225,3.4,3.4,91,0.00,,CLR,0.00,VWS V14.01,2013-08-30 10:08:00,
2013-08-30 06:13:00,68.5,65.8,29.79,SW,225,3.4,3.4,91,0.00,,CLR,0.00,VWS V14.01,2013-08-30 10:13:00,
2013-08-30 06:18:00,68.5,65.5,29.79,SW,225,3.4,3.4,90,0.00,,CLR,0.00,VWS V14.01,2013-08-30 10:18:00,
2013-08-30 06:23:00,68.7,65.7,29.79,SW,225,3.4,3.4,90,0.00,,CLR,0.00,VWS V14.01,2013-08-30 10:23:00,
2013-08-30 06:28:00,68.7,65.3,29.79,SW,225,3.4,3.4,89,0.00,,CLR,0.00,VWS V14.01,2013-08-30 10:28:00,
2013-08-30 06:33:00,68.7,65.0,29.79,SW,225,3.4,3.4,88,0.00,,CLR,0.00,VWS V14.01,2013-08-30 10:33:00,
2013-08-30 06:38:00,68.7,65.0,29.79,SW,225,3.4,3.4,88,0.00,,CLR,0.00,VWS V14.01,2013-08-30 10:38:00,
2013-08-30 06:43:00,68.5,64.5,29.79,SW,225,3.4,3.4,87,0.00,,CLR,0.00,VWS V14.01,2013-08-30 10:43:00,
2013-08-30 06:48:00,68.5,64.5,29.79,SW,225,3.4,3.4,87,0.00,,CLR,0.00,VWS V14.01,2013-08-30 10:48:00,
2013-08-30 06:53:00,68.5,64.5,29.79,SW,225,3.4,3.4,87,0.00,,CLR,0.00,VWS V14.01,2013-08-30 10:53:00,
2013-08-30 06:58:00,68.5,64.5,29.79,SW,225,3.4,3.4,87,0.00,,CLR,0.00,VWS V14.01,2013-08-30 10:58:00,
2013-08-30 07:00:00,68.5,64.5,29.80,SW,225,3.4,3.4,87,0.00,,CLR,0.00,VWS V14.01,2013-08-30 11:00:00,
2013-08-30 07:03:00,68.5,64.5,29.79,SW,225,3.4,3.4,87,0.00,,CLR,0.00,VWS V14.01,2013-08-30 11:03:00,
2013-08-30 07:08:00,68.5,64.2,29.79,SW,225,3.4,3.4,86,0.00,,CLR,0.00,VWS V14.01,2013-08-30 11:08:00,
2013-08-30 07:13:00,68.4,64.0,29.79,SW,225,3.4,3.4,86,0.00,,CLR,0.00,VWS V14.01,2013-08-30 11:13:00,
2013-08-30 07:18:00,68.4,64.0,29.79,SW,225,3.4,3.4,86,0.00,,CLR,0.00,VWS V14.01,2013-08-30 11:18:00,
2013-08-30 07:23:00,68.2,63.8,29.79,SW,225,3.4,3.4,86,0.00,,CLR,0.00,VWS V14.01,2013-08-30 11:23:00,
2013-08-30 07:28:00,68.2,63.8,29.79,SW,225,3.4,3.4,86,0.00,,CLR,0.00,VWS V14.01,2013-08-30 11:28:00,
2013-08-30 07:33:00,68.2,63.8,29.79,SW,225,3.4,3.4,86,0.00,,CLR,0.00,VWS V14.01,2013-08-30 11:33:00,
2013-08-30 07:39:00,68.4,64.0,29.79,SW,225,3.4,3.4,86,0.00,,CLR,0.00,VWS V14.01,2013-08-30 11:39:00,
2013-08-30 07:44:00,68.5,64.2,29.79,SW,225,3.4,3.4,86,0.00,,CLR,0.00,VWS V14.01,2013-08-30 11:44:00,
2013-08-30 07:49:00,68.7,64.4,29.79,SW,225,3.4,3.4,86,0.00,,CLR,0.00,VWS V14.01,2013-08-30 11:49:00,
2013-08-30 07:54:00,68.9,64.2,29.79,SW,225,3.4,3.4,85,0.00,,CLR,0.00,VWS V14.01,2013-08-30 11:54:00,
2013-08-30 07:59:00,68.9,63.9,29.79,SW,225,3.4,3.4,84,0.00,,CLR,0.00,VWS V14.01,2013-08-30 11:59:00,
2013-08-30 08:00:00,69.1,64.1,29.80,SW,225,3.4,3.4,84,0.00,,CLR,0.00,VWS V14.01,2013-08-30 12:00:00,
2013-08-30 08:04:00,69.1,64.1,29.79,SW,225,3.4,3.4,84,0.00,,CLR,0.00,VWS V14.01,2013-08-30 12:04:00,
2013-08-30 08:09:00,69.1,63.7,29.76,SW,225,3.4,3.4,83,0.00,,CLR,0.00,VWS V14.01,2013-08-30 12:09:00,
2013-08-30 08:14:00,69.3,63.9,29.76,SW,225,3.4,3.4,83,0.00,,CLR,0.00,VWS V14.01,2013-08-30 12:14:00,
2013-08-30 08:19:00,69.3,63.9,29.79,SW,225,3.4,3.4,83,0.00,,CLR,0.00,VWS V14.01,2013-08-30 12:19:00,
2013-08-30 08:24:00,69.3,63.5,29.79,SW,225,3.4,3.4,82,0.00,,CLR,0.00,VWS V14.01,2013-08-30 12:24:00,
2013-08-30 08:29:00,69.6,63.9,29.79,SW,225,3.4,3.4,82,0.00,,CLR,0.00,VWS V14.01,2013-08-30 12:29:00,
2013-08-30 08:34:00,70.3,64.2,29.76,SW,225,3.4,3.4,81,0.00,,CLR,0.00,VWS V14.01,2013-08-30 12:34:00,
2013-08-30 08:39:00,70.5,64.1,29.76,SW,225,3.4,3.4,80,0.00,,CLR,0.00,VWS V14.01,2013-08-30 12:39:00,
2013-08-30 08:44:00,70.5,63.3,29.76,SW,225,3.4,3.4,78,0.00,,CLR,0.00,VWS V14.01,2013-08-30 12:44:00,
2013-08-30 08:49:00,70.5,63.7,29.76,SW,225,3.4,3.4,79,0.00,,CLR,0.00,VWS V14.01,2013-08-30 12:49:00,
2013-08-30 08:54:00,70.7,63.9,29.76,SW,225,3.4,3.4,79,0.00,,CLR,0.00,VWS V14.01,2013-08-30 12:54:00,
2013-08-30 08:59:00,71.2,64.4,29.76,SW,225,3.4,3.4,79,0.00,,CLR,0.00,VWS V14.01,2013-08-30 12:59:00,
2013-08-30 09:00:00,71.4,64.2,29.76,SW,225,3.4,3.4,78,0.00,,CLR,0.00,VWS V14.01,2013-08-30 13:00:00,
2013-08-30 09:04:00,72.0,64.4,29.76,SW,225,3.4,3.4,77,0.00,,CLR,0.00,VWS V14.01,2013-08-30 13:04:00,
2013-08-30 09:09:00,72.3,64.3,29.76,SW,225,3.4,3.4,76,0.00,,CLR,0.00,VWS V14.01,2013-08-30 13:09:00,
2013-08-30 09:14:00,73.2,65.2,29.76,SW,225,3.4,3.4,76,0.00,,CLR,0.00,VWS V14.01,2013-08-30 13:14:00,
2013-08-30 09:19:00,74.7,65.4,29.76,SW,225,3.4,3.4,73,0.00,,CLR,0.00,VWS V14.01,2013-08-30 13:19:00,
2013-08-30 09:24:00,75.4,64.9,29.76,SW,225,3.4,3.4,70,0.00,,CLR,0.00,VWS V14.01,2013-08-30 13:24:00,
2013-08-30 09:29:00,76.6,65.3,29.76,SW,225,3.4,3.4,68,0.00,,CLR,0.00,VWS V14.01,2013-08-30 13:29:00,
2013-08-30 09:34:00,77.4,65.1,29.74,SW,225,3.4,3.4,66,0.00,,CLR,0.00,VWS V14.01,2013-08-30 13:34:00,
2013-08-30 09:39:00,77.7,65.5,29.74,SW,225,3.4,3.4,66,0.00,,CLR,0.00,VWS V14.01,2013-08-30 13:39:00,
2013-08-30 09:44:00,78.3,65.5,29.74,SW,225,3.4,3.4,65,0.00,,CLR,0.00,VWS V14.01,2013-08-30 13:44:00,
2013-08-30 09:49:00,78.8,64.7,29.74,SW,225,3.4,3.4,62,0.00,,CLR,0.00,VWS V14.01,2013-08-30 13:49:00,
2013-08-30 09:54:00,79.3,65.7,29.74,SW,225,3.4,3.4,63,0.00,,CLR,0.00,VWS V14.01,2013-08-30 13:54:00,
2013-08-30 09:59:00,79.9,66.2,29.74,SW,225,3.4,3.4,63,0.00,,CLR,0.00,VWS V14.01,2013-08-30 13:59:00,
2013-08-30 10:00:00,79.7,65.5,29.74,SW,225,3.4,3.4,62,0.00,,CLR,0.00,VWS V14.01,2013-08-30 14:00:00,
2013-08-30 10:04:00,79.9,65.2,29.74,SW,225,3.4,3.4,61,0.00,,CLR,0.00,VWS V14.01,2013-08-30 14:04:00,
2013-08-30 10:09:00,80.4,65.8,29.74,SW,225,3.4,3.4,61,0.00,,CLR,0.00,VWS V14.01,2013-08-30 14:09:00,
2013-08-30 10:14:00,81.1,65.9,29.74,SW,225,3.4,3.4,60,0.00,,CLR,0.00,VWS V14.01,2013-08-30 14:14:00,
2013-08-30 10:19:00,81.5,65.8,29.74,SW,225,3.4,3.4,59,0.00,,CLR,0.00,VWS V14.01,2013-08-30 14:19:00,
2013-08-30 10:24:00,82.4,67.1,29.74,SW,225,3.4,3.4,60,0.00,,CLR,0.00,VWS V14.01,2013-08-30 14:24:00,
2013-08-30 10:29:00,82.4,66.2,29.74,SW,225,3.4,3.4,58,0.00,,CLR,0.00,VWS V14.01,2013-08-30 14:29:00,
2013-08-30 10:34:00,82.6,65.3,29.74,SW,225,3.4,3.4,56,0.00,,CLR,0.00,VWS V14.01,2013-08-30 14:34:00,
2013-08-30 10:39:00,83.3,66.0,29.74,SW,225,3.4,3.4,56,0.00,,CLR,0.00,VWS V14.01,2013-08-30 14:39:00,
2013-08-30 10:44:00,83.3,64.9,29.74,SW,225,3.4,3.4,54,0.00,,CLR,0.00,VWS V14.01,2013-08-30 14:44:00,
2013-08-30 10:49:00,82.6,64.8,29.74,SW,225,3.4,3.4,55,0.00,,CLR,0.00,VWS V14.01,2013-08-30 14:49:00,
2013-08-30 10:55:00,82.6,65.3,29.74,SW,225,3.4,3.4,56,0.00,,CLR,0.00,VWS V14.01,2013-08-30 14:55:00,
2013-08-30 11:00:00,83.5,65.6,29.74,SW,225,3.4,3.4,55,0.00,,CLR,0.00,VWS V14.01,2013-08-30 15:00:00,
2013-08-30 11:05:00,84.7,65.7,29.74,SW,225,3.4,3.4,53,0.00,,CLR,0.00,VWS V14.01,2013-08-30 15:05:00,
2013-08-30 11:10:00,86.0,65.8,29.74,SW,225,3.4,3.4,51,0.00,,CLR,0.00,VWS V14.01,2013-08-30 15:10:00,
2013-08-30 11:15:00,83.8,64.3,29.74,SW,225,3.4,3.4,52,0.00,,CLR,0.00,VWS V14.01,2013-08-30 15:15:00,
2013-08-30 11:20:00,82.9,63.5,29.74,SW,225,3.4,3.4,52,0.00,,CLR,0.00,VWS V14.01,2013-08-30 15:20:00,
2013-08-30 11:25:00,84.0,64.5,29.74,SW,225,3.4,3.4,52,0.00,,CLR,0.00,VWS V14.01,2013-08-30 15:25:00,
2013-08-30 11:30:00,83.5,64.0,29.74,SW,225,3.4,3.4,52,0.00,,CLR,0.00,VWS V14.01,2013-08-30 15:30:00,
2013-08-30 11:35:00,84.9,65.3,29.68,SW,225,3.4,3.4,52,0.00,,CLR,0.00,VWS V14.01,2013-08-30 15:35:00,
2013-08-30 11:40:00,85.5,64.7,29.68,SW,225,3.4,3.4,50,0.00,,CLR,0.00,VWS V14.01,2013-08-30 15:40:00,
2013-08-30 11:45:00,85.3,63.4,29.68,SW,225,3.4,3.4,48,0.00,,CLR,0.00,VWS V14.01,2013-08-30 15:45:00,
2013-08-30 11:50:00,85.5,64.1,29.68,SW,225,3.4,3.4,49,0.00,,CLR,0.00,VWS V14.01,2013-08-30 15:50:00,
2013-08-30 11:55:00,85.6,64.9,29.68,SW,225,3.4,3.4,50,0.00,,CLR,0.00,VWS V14.01,2013-08-30 15:55:00,
2013-08-30 12:00:00,85.3,63.4,29.68,SW,225,3.4,3.4,48,0.00,,CLR,0.00,VWS V14.01,2013-08-30 16:00:00,
2013-08-30 12:05:00,85.8,63.9,29.71,SW,225,3.4,3.4,48,0.00,,CLR,0.00,VWS V14.01,2013-08-30 16:05:00,
2013-08-30 12:10:00,85.1,62.6,29.71,SW,225,3.4,3.4,47,0.00,,CLR,0.00,VWS V14.01,2013-08-30 16:10:00,
2013-08-30 12:15:00,85.5,64.1,29.71,SW,225,3.4,3.4,49,0.00,,CLR,0.00,VWS V14.01,2013-08-30 16:15:00,
2013-08-30 12:20:00,86.0,64.6,29.68,SW,225,3.4,3.4,49,0.00,,CLR,0.00,VWS V14.01,2013-08-30 16:20:00,
2013-08-30 12:25:00,86.7,64.7,29.68,SW,225,3.4,3.4,48,0.00,,CLR,0.00,VWS V14.01,2013-08-30 16:25:00,
2013-08-30 12:30:00,86.9,63.7,29.68,SW,225,3.4,3.4,46,0.00,,CLR,0.00,VWS V14.01,2013-08-30 16:30:00,
2013-08-30 12:35:00,86.0,62.8,29.71,SW,225,3.4,3.4,46,0.00,,CLR,0.00,VWS V14.01,2013-08-30 16:35:00,
2013-08-30 12:40:00,86.0,62.8,29.71,SW,225,3.4,3.4,46,0.00,,CLR,0.00,VWS V14.01,2013-08-30 16:40:00,
2013-08-30 12:45:00,86.7,64.1,29.71,SW,225,3.4,3.4,47,0.00,,CLR,0.00,VWS V14.01,2013-08-30 16:45:00,
2013-08-30 12:50:00,86.4,62.5,29.71,SW,225,3.4,3.4,45,0.00,,CLR,0.00,VWS V14.01,2013-08-30 16:50:00,
2013-08-30 12:55:00,86.5,61.4,29.71,SW,225,3.4,3.4,43,0.00,,CLR,0.00,VWS V14.01,2013-08-30 16:55:00,
2013-08-30 13:00:00,87.1,63.8,29.71,SW,225,3.4,3.4,46,0.00,,CLR,0.00,VWS V14.01,2013-08-30 17:00:00,
2013-08-30 13:05:00,87.3,63.3,29.68,SW,225,3.4,3.4,45,0.00,,CLR,0.00,VWS V14.01,2013-08-30 17:05:00,
2013-08-30 13:10:00,87.4,62.2,29.68,SW,225,3.4,3.4,43,0.00,,CLR,0.00,VWS V14.01,2013-08-30 17:10:00,
2013-08-30 13:15:00,87.8,63.8,29.68,SW,225,3.4,3.4,45,0.00,,CLR,0.00,VWS V14.01,2013-08-30 17:15:00,
2013-08-30 13:20:00,88.0,64.0,29.68,SW,225,3.4,3.4,45,0.00,,CLR,0.00,VWS V14.01,2013-08-30 17:20:00,
2013-08-30 13:25:00,87.1,61.9,29.68,SW,225,3.4,3.4,43,0.00,,CLR,0.00,VWS V14.01,2013-08-30 17:25:00,
2013-08-30 13:30:00,86.7,61.6,29.68,SW,225,3.4,3.4,43,0.00,,CLR,0.00,VWS V14.01,2013-08-30 17:30:00,
2013-08-30 13:35:00,86.4,61.2,29.68,SW,225,3.4,3.4,43,0.00,,CLR,0.00,VWS V14.01,2013-08-30 17:35:00,
2013-08-30 13:40:00,86.4,61.2,29.68,SW,225,3.4,3.4,43,0.00,,CLR,0.00,VWS V14.01,2013-08-30 17:40:00,
2013-08-30 13:45:00,85.6,61.9,29.68,SW,225,3.4,3.4,45,0.00,,CLR,0.00,VWS V14.01,2013-08-30 17:45:00,
2013-08-30 13:50:00,87.4,64.8,29.68,SW,225,3.4,3.4,47,0.00,,CLR,0.00,VWS V14.01,2013-08-30 17:50:00,
2013-08-30 13:55:00,87.6,61.7,29.68,SW,225,3.4,3.4,42,0.00,,CLR,0.00,VWS V14.01,2013-08-30 17:55:00,
2013-08-30 14:00:00,87.6,61.7,29.68,SW,225,3.4,3.4,42,0.00,,CLR,0.00,VWS V14.01,2013-08-30 18:00:00,
2013-08-30 14:06:00,87.6,61.7,29.68,SW,225,3.4,3.4,42,0.00,,CLR,0.00,VWS V14.01,2013-08-30 18:06:00,
2013-08-30 14:11:00,87.6,61.7,29.68,SW,225,3.4,3.4,42,0.00,,CLR,0.00,VWS V14.01,2013-08-30 18:11:00,
2013-08-30 14:16:00,87.6,61.7,29.68,SW,225,3.4,3.4,42,0.00,,CLR,0.00,VWS V14.01,2013-08-30 18:16:00,
2013-08-30 14:21:00,87.8,61.2,29.68,SW,225,3.4,3.4,41,0.00,,CLR,0.00,VWS V14.01,2013-08-30 18:21:00,
2013-08-30 14:26:00,87.8,61.2,29.68,SW,225,3.4,3.4,41,0.00,,CLR,0.00,VWS V14.01,2013-08-30 18:26:00,
2013-08-30 14:31:00,87.8,61.2,29.68,SW,225,3.4,3.4,41,0.00,,CLR,0.00,VWS V14.01,2013-08-30 18:31:00,
2013-08-30 14:36:00,87.8,61.2,29.68,SW,225,3.4,3.4,41,0.00,,CLR,0.00,VWS V14.01,2013-08-30 18:36:00,
2013-08-30 14:41:00,87.8,61.2,29.68,SW,225,3.4,3.4,41,0.00,,CLR,0.00,VWS V14.01,2013-08-30 18:41:00,
2013-08-30 14:46:00,87.8,61.2,29.68,SW,225,3.4,3.4,41,0.00,,CLR,0.00,VWS V14.01,2013-08-30 18:46:00,
2013-08-30 14:51:00,87.8,61.2,29.68,SW,225,3.4,3.4,41,0.00,,CLR,0.00,VWS V14.01,2013-08-30 18:51:00,
2013-08-30 14:56:00,87.8,61.2,29.68,SW,225,3.4,3.4,41,0.00,,CLR,0.00,VWS V14.01,2013-08-30 18:56:00,
2013-08-30 15:00:00,87.8,61.2,29.68,SW,225,3.4,3.4,41,0.00,,CLR,0.00,VWS V14.01,2013-08-30 19:00:00,
2013-08-30 15:01:00,87.8,61.2,29.68,SW,225,3.4,3.4,41,0.00,,CLR,0.00,VWS V14.01,2013-08-30 19:01:00,
2013-08-30 15:06:00,87.8,61.2,29.65,SW,225,3.4,3.4,41,0.00,,CLR,0.00,VWS V14.01,2013-08-30 19:06:00,
2013-08-30 15:11:00,87.8,61.2,29.65,SW,225,3.4,3.4,41,0.00,,CLR,0.00,VWS V14.01,2013-08-30 19:11:00,
2013-08-30 15:16:00,87.8,61.2,29.65,SW,225,3.4,3.4,41,0.00,,CLR,0.00,VWS V14.01,2013-08-30 19:16:00,
2013-08-30 15:21:00,88.0,63.4,29.65,SW,225,3.4,3.4,44,0.00,,CLR,0.00,VWS V14.01,2013-08-30 19:21:00,
2013-08-30 15:26:00,88.0,63.4,29.65,SW,225,3.4,3.4,44,0.00,,CLR,0.00,VWS V14.01,2013-08-30 19:26:00,
2013-08-30 15:31:00,88.0,63.4,29.65,SW,225,3.4,3.4,44,0.00,,CLR,0.00,VWS V14.01,2013-08-30 19:31:00,
2013-08-30 15:36:00,88.0,63.4,29.65,SW,225,3.4,3.4,44,0.00,,CLR,0.00,VWS V14.01,2013-08-30 19:36:00,
2013-08-30 15:41:00,88.0,63.4,29.65,SW,225,3.4,3.4,44,0.00,,CLR,0.00,VWS V14.01,2013-08-30 19:41:00,
2013-08-30 15:46:00,88.0,63.4,29.65,SW,225,3.4,3.4,44,0.00,,CLR,0.00,VWS V14.01,2013-08-30 19:46:00,
2013-08-30 15:51:00,88.0,63.4,29.65,SW,225,3.4,3.4,44,0.00,,CLR,0.00,VWS V14.01,2013-08-30 19:51:00,
2013-08-30 15:56:00,88.0,63.4,29.65,SW,225,3.4,3.4,44,0.00,,CLR,0.00,VWS V14.01,2013-08-30 19:56:00,
2013-08-30 16:00:00,88.0,63.4,29.65,SW,225,3.4,3.4,44,0.00,,CLR,0.00,VWS V14.01,2013-08-30 20:00:00,
2013-08-30 16:01:00,88.0,63.4,29.65,SW,225,3.4,3.4,44,0.00,,CLR,0.00,VWS V14.01,2013-08-30 20:01:00,
2013-08-30 16:06:00,88.0,63.4,29.62,SW,225,3.4,3.4,44,0.00,,CLR,0.00,VWS V14.01,2013-08-30 20:06:00,
2013-08-30 16:11:00,88.0,63.4,29.62,SW,225,3.4,3.4,44,0.00,,CLR,0.00,VWS V14.01,2013-08-30 20:11:00,
2013-08-30 16:16:00,88.0,63.4,29.62,SW,225,3.4,3.4,44,0.00,,CLR,0.00,VWS V14.01,2013-08-30 20:16:00,
2013-08-30 16:21:00,88.0,63.4,29.62,SW,225,3.4,3.4,44,0.00,,CLR,0.00,VWS V14.01,2013-08-30 20:21:00,
2013-08-30 16:26:00,88.0,63.4,29.62,SW,225,3.4,3.4,44,0.00,,CLR,0.00,VWS V14.01,2013-08-30 20:26:00,
2013-08-30 16:31:00,88.0,63.4,29.62,SW,225,3.4,3.4,44,0.00,,CLR,0.00,VWS V14.01,2013-08-30 20:31:00,
2013-08-30 16:36:00,88.0,63.4,29.62,SW,225,3.4,3.4,44,0.00,,CLR,0.00,VWS V14.01,2013-08-30 20:36:00,
2013-08-30 16:41:00,88.0,63.4,29.62,SW,225,3.4,3.4,44,0.00,,CLR,0.00,VWS V14.01,2013-08-30 20:41:00,
2013-08-30 16:46:00,88.0,63.4,29.62,SW,225,3.4,3.4,44,0.00,,CLR,0.00,VWS V14.01,2013-08-30 20:46:00,
2013-08-30 16:51:00,88.0,63.4,29.62,SW,225,3.4,3.4,44,0.00,,CLR,0.00,VWS V14.01,2013-08-30 20:51:00,
2013-08-30 16:56:00,88.0,63.4,29.62,SW,225,3.4,3.4,44,0.00,,CLR,0.00,VWS V14.01,2013-08-30 20:56:00,
2013-08-30 17:00:00,88.0,63.4,29.62,SW,225,3.4,3.4,44,0.00,,CLR,0.00,VWS V14.01,2013-08-30 21:00:00,
2013-08-30 17:01:00,88.0,63.4,29.62,SW,225,3.4,3.4,44,0.00,,CLR,0.00,VWS V14.01,2013-08-30 21:01:00,
2013-08-30 17:06:00,88.0,63.4,29.59,SW,225,3.4,3.4,44,0.00,,CLR,0.00,VWS V14.01,2013-08-30 21:06:00,
2013-08-30 17:11:00,88.0,63.4,29.59,SW,225,3.4,3.4,44,0.00,,CLR,0.00,VWS V14.01,2013-08-30 21:11:00,
2013-08-30 17:16:00,88.0,63.4,29.59,SW,225,3.4,3.4,44,0.00,,CLR,0.00,VWS V14.01,2013-08-30 21:16:00,
2013-08-30 17:21:00,88.0,63.4,29.59,SW,225,3.4,3.4,44,0.00,,CLR,0.00,VWS V14.01,2013-08-30 21:21:00,
2013-08-30 17:26:00,88.0,63.4,29.59,SW,225,3.4,3.4,44,0.00,,CLR,0.00,VWS V14.01,2013-08-30 21:26:00,
2013-08-30 17:31:00,88.0,63.4,29.59,SW,225,3.4,3.4,44,0.00,,CLR,0.00,VWS V14.01,2013-08-30 21:31:00,
2013-08-30 17:36:00,88.0,63.4,29.59,SW,225,3.4,3.4,44,0.00,,CLR,0.00,VWS V14.01,2013-08-30 21:36:00,
2013-08-30 17:41:00,88.0,63.4,29.59,SW,225,3.4,3.4,44,0.00,,CLR,0.00,VWS V14.01,2013-08-30 21:41:00,
2013-08-30 17:46:00,88.0,63.4,29.59,SW,225,3.4,3.4,44,0.00,,CLR,0.00,VWS V14.01,2013-08-30 21:46:00,
2013-08-30 17:52:00,88.0,63.4,29.59,SW,225,3.4,3.4,44,0.00,,CLR,0.00,VWS V14.01,2013-08-30 21:52:00,
2013-08-30 17:57:00,88.0,63.4,29.59,SW,225,3.4,3.4,44,0.00,,CLR,0.00,VWS V14.01,2013-08-30 21:57:00,
2013-08-30 18:02:00,88.0,63.4,29.59,SW,225,3.4,3.4,44,0.00,,CLR,0.00,VWS V14.01,2013-08-30 22:02:00,
2013-08-30 18:07:00,88.0,63.4,29.56,SW,225,3.4,3.4,44,0.00,,CLR,0.00,VWS V14.01,2013-08-30 22:07:00,
2013-08-30 18:12:00,88.0,63.4,29.56,SW,225,3.4,3.4,44,0.00,,CLR,0.00,VWS V14.01,2013-08-30 22:12:00,
2013-08-30 18:17:00,88.0,63.4,29.56,SW,225,3.4,3.4,44,0.00,,CLR,0.00,VWS V14.01,2013-08-30 22:17:00,
2013-08-30 18:22:00,88.0,63.4,29.59,SW,225,3.4,3.4,44,0.00,,CLR,0.00,VWS V14.01,2013-08-30 22:22:00,
2013-08-30 18:27:00,88.0,63.4,29.59,SW,225,3.4,3.4,44,0.00,,CLR,0.00,VWS V14.01,2013-08-30 22:27:00,
2013-08-30 18:32:00,88.0,63.4,29.59,SW,225,3.4,3.4,44,0.00,,CLR,0.00,VWS V14.01,2013-08-30 22:32:00,
2013-08-30 18:37:00,88.0,63.4,29.56,SW,225,3.4,3.4,44,0.00,,CLR,0.00,VWS V14.01,2013-08-30 22:37:00,
2013-08-30 18:42:00,88.0,63.4,29.56,SW,225,3.4,3.4,44,0.00,,CLR,0.00,VWS V14.01,2013-08-30 22:42:00,
2013-08-30 18:47:00,88.0,63.4,29.56,SW,225,3.4,3.4,44,0.00,,CLR,0.00,VWS V14.01,2013-08-30 22:47:00,
2013-08-30 18:52:00,88.0,63.4,29.59,SW,225,3.4,3.4,44,0.00,,CLR,0.00,VWS V14.01,2013-08-30 22:52:00,
2013-08-30 18:57:00,88.0,63.4,29.59,SW,225,3.4,3.4,44,0.00,,CLR,0.00,VWS V14.01,2013-08-30 22:57:00,
2013-08-30 19:00:00,88.0,63.4,29.59,SW,225,3.4,3.4,44,0.00,,CLR,0.00,VWS V14.01,2013-08-30 23:00:00,
2013-08-30 19:02:00,88.0,63.4,29.59,SW,225,3.4,3.4,44,0.00,,CLR,0.00,VWS V14.01,2013-08-30 23:02:00,
2013-08-30 19:07:00,88.0,63.4,29.59,SW,225,3.4,3.4,44,0.00,,CLR,0.00,VWS V14.01,2013-08-30 23:07:00,
2013-08-30 19:12:00,88.0,63.4,29.59,SW,225,3.4,3.4,44,0.00,,CLR,0.00,VWS V14.01,2013-08-30 23:12:00,
2013-08-30 19:17:00,88.0,63.4,29.59,SW,225,3.4,3.4,44,0.00,,CLR,0.00,VWS V14.01,2013-08-30 23:17:00,
2013-08-30 19:22:00,88.0,63.4,29.59,SW,225,3.4,3.4,44,0.00,,CLR,0.00,VWS V14.01,2013-08-30 23:22:00,
2013-08-30 19:27:00,88.0,63.4,29.59,SW,225,3.4,3.4,44,0.00,,CLR,0.00,VWS V14.01,2013-08-30 23:27:00,
2013-08-30 19:32:00,80.8,67.9,29.59,SW,225,3.4,3.4,65,0.00,,CLR,0.00,VWS V14.01,2013-08-30 23:32:00,
2013-08-30 19:37:00,80.8,67.9,29.56,SW,225,3.4,3.4,65,0.00,,CLR,0.00,VWS V14.01,2013-08-30 23:37:00,
2013-08-30 19:42:00,80.8,67.9,29.56,SW,225,3.4,3.4,65,0.00,,CLR,0.00,VWS V14.01,2013-08-30 23:42:00,
2013-08-30 19:47:00,80.8,67.9,29.56,SW,225,3.4,3.4,65,0.00,,CLR,0.00,VWS V14.01,2013-08-30 23:47:00,
2013-08-30 19:52:00,80.8,67.9,29.56,SW,225,3.4,3.4,65,0.00,,CLR,0.00,VWS V14.01,2013-08-30 23:52:00,
2013-08-30 19:57:00,80.8,67.9,29.56,SW,225,3.4,3.4,65,0.00,,CLR,0.00,VWS V14.01,2013-08-30 23:57:00,
2013-08-30 20:00:00,80.8,67.9,29.56,SW,225,3.4,3.4,65,0.00,,CLR,0.00,VWS V14.01,2013-08-31 00:00:00,
2013-08-30 20:02:00,80.8,67.9,29.56,SW,225,3.4,3.4,65,0.00,,CLR,0.00,VWS V14.01,2013-08-31 00:02:00,
2013-08-30 20:07:00,80.8,67.9,29.56,SW,225,3.4,3.4,65,0.00,,CLR,0.00,VWS V14.01,2013-08-31 00:07:00,
2013-08-30 20:12:00,80.8,67.9,29.56,SW,225,3.4,3.4,65,0.00,,CLR,0.00,VWS V14.01,2013-08-31 00:12:00,
2013-08-30 20:17:00,80.8,67.9,29.56,SW,225,3.4,3.4,65,0.00,,CLR,0.00,VWS V14.01,2013-08-31 00:17:00,
2013-08-30 20:22:00,80.8,67.9,29.59,SW,225,3.4,3.4,65,0.00,,CLR,0.00,VWS V14.01,2013-08-31 00:22:00,
2013-08-30 20:27:00,80.8,67.9,29.59,SW,225,3.4,3.4,65,0.00,,CLR,0.00,VWS V14.01,2013-08-31 00:27:00,
2013-08-30 20:32:00,80.8,67.9,29.59,SW,225,3.4,3.4,65,0.00,,CLR,0.00,VWS V14.01,2013-08-31 00:32:00,
2013-08-30 20:37:00,80.8,67.9,29.62,SW,225,3.4,3.4,65,0.00,,CLR,0.00,VWS V14.01,2013-08-31 00:37:00,
2013-08-30 20:42:00,80.8,67.9,29.62,SW,225,3.4,3.4,65,0.00,,CLR,0.00,VWS V14.01,2013-08-31 00:42:00,
2013-08-30 20:47:00,80.8,67.9,29.62,SW,225,3.4,3.4,65,0.00,,CLR,0.00,VWS V14.01,2013-08-31 00:47:00,
2013-08-30 20:52:00,80.8,67.9,29.62,SW,225,3.4,3.4,65,0.00,,CLR,0.00,VWS V14.01,2013-08-31 00:52:00,
2013-08-30 20:57:00,80.8,67.9,29.62,SW,225,3.4,3.4,65,0.00,,CLR,0.00,VWS V14.01,2013-08-31 00:57:00,
2013-08-30 21:02:00,80.8,67.9,29.62,SW,225,3.4,3.4,65,0.00,,CLR,0.00,VWS V14.01,2013-08-31 01:02:00,
2013-08-30 21:07:00,80.8,67.9,29.62,SW,225,3.4,3.4,65,0.00,,CLR,0.00,VWS V14.01,2013-08-31 01:07:00,
2013-08-30 21:12:00,80.8,67.9,29.62,SW,225,3.4,3.4,65,0.00,,CLR,0.00,VWS V14.01,2013-08-31 01:12:00,
2013-08-30 21:17:00,80.8,67.9,29.62,SW,225,3.4,3.4,65,0.00,,CLR,0.00,VWS V14.01,2013-08-31 01:17:00,
2013-08-30 21:22:00,80.8,67.9,29.62,SW,225,3.4,3.4,65,0.00,,CLR,0.00,VWS V14.01,2013-08-31 01:22:00,
2013-08-30 21:27:00,80.8,67.9,29.62,SW,225,3.4,3.4,65,0.00,,CLR,0.00,VWS V14.01,2013-08-31 01:27:00,
2013-08-30 21:32:00,80.8,67.9,29.62,SW,225,3.4,3.4,65,0.00,,CLR,0.00,VWS V14.01,2013-08-31 01:32:00,
2013-08-30 21:37:00,80.8,67.9,29.62,SW,225,3.4,3.4,65,0.00,,CLR,0.00,VWS V14.01,2013-08-31 01:37:00,
2013-08-30 21:42:00,80.8,67.9,29.62,SW,225,3.4,3.4,65,0.00,,CLR,0.00,VWS V14.01,2013-08-31 01:42:00,
2013-08-30 21:47:00,80.8,67.9,29.62,SW,225,3.4,3.4,65,0.00,,CLR,0.00,VWS V14.01,2013-08-31 01:47:00,
2013-08-30 21:52:00,80.8,67.9,29.62,SW,225,3.4,3.4,65,0.00,,CLR,0.00,VWS V14.01,2013-08-31 01:52:00,
2013-08-30 21:58:00,80.8,67.9,29.62,SW,225,3.4,3.4,65,0.00,,CLR,0.00,VWS V14.01,2013-08-31 01:58:00,
2013-08-30 22:00:00,80.8,67.9,29.62,SW,225,3.4,3.4,65,0.00,,CLR,0.00,VWS V14.01,2013-08-31 02:00:00,
2013-08-30 22:03:00,80.8,67.9,29.62,SW,225,3.4,3.4,65,0.00,,CLR,0.00,VWS V14.01,2013-08-31 02:03:00,
2013-08-30 22:08:00,80.8,67.9,29.62,SW,225,3.4,3.4,65,0.00,,CLR,0.00,VWS V14.01,2013-08-31 02:08:00,
2013-08-30 22:13:00,80.8,67.9,29.62,SW,225,3.4,3.4,65,0.00,,CLR,0.00,VWS V14.01,2013-08-31 02:13:00,
2013-08-30 22:18:00,80.8,67.9,29.62,SW,225,3.4,3.4,65,0.00,,CLR,0.00,VWS V14.01,2013-08-31 02:18:00,
2013-08-30 22:23:00,80.8,67.9,29.62,SW,225,3.4,3.4,65,0.00,,CLR,0.00,VWS V14.01,2013-08-31 02:23:00,
2013-08-30 22:28:00,80.8,67.9,29.62,SW,225,3.4,3.4,65,0.00,,CLR,0.00,VWS V14.01,2013-08-31 02:28:00,
2013-08-30 22:33:00,80.8,67.9,29.62,SW,225,3.4,3.4,65,0.00,,CLR,0.00,VWS V14.01,2013-08-31 02:33:00,
2013-08-30 22:38:00,80.8,67.9,29.62,SW,225,3.4,3.4,65,0.00,,CLR,0.00,VWS V14.01,2013-08-31 02:38:00,
2013-08-30 22:43:00,80.8,67.9,29.62,SW,225,3.4,3.4,65,0.00,,CLR,0.00,VWS V14.01,2013-08-31 02:43:00,
2013-08-30 22:48:00,80.8,67.9,29.62,SW,225,3.4,3.4,65,0.00,,CLR,0.00,VWS V14.01,2013-08-31 02:48:00,
2013-08-30 22:53:00,80.8,67.9,29.62,SW,225,3.4,3.4,65,0.00,,CLR,0.00,VWS V14.01,2013-08-31 02:53:00,
2013-08-30 22:58:00,80.8,67.9,29.62,SW,225,3.4,3.4,65,0.00,,CLR,0.00,VWS V14.01,2013-08-31 02:58:00,
2013-08-30 23:00:00,80.8,67.9,29.62,SW,225,3.4,3.4,65,0.00,,CLR,0.00,VWS V14.01,2013-08-31 03:00:00,
2013-08-30 23:03:00,80.8,67.9,29.62,SW,225,3.4,3.4,65,0.00,,CLR,0.00,VWS V14.01,2013-08-31 03:03:00,
2013-08-30 23:08:00,80.8,67.9,29.65,SW,225,3.4,3.4,65,0.00,,CLR,0.00,VWS V14.01,2013-08-31 03:08:00,
2013-08-30 23:13:00,80.8,67.9,29.65,SW,225,3.4,3.4,65,0.00,,CLR,0.00,VWS V14.01,2013-08-31 03:13:00,
2013-08-30 23:18:00,80.8,67.9,29.65,SW,225,3.4,3.4,65,0.00,,CLR,0.00,VWS V14.01,2013-08-31 03:18:00,
2013-08-30 23:23:00,80.8,67.9,29.65,SW,225,3.4,3.4,65,0.00,,CLR,0.00,VWS V14.01,2013-08-31 03:23:00,
2013-08-30 23:28:00,80.8,67.9,29.65,SW,225,3.4,3.4,65,0.00,,CLR,0.00,VWS V14.01,2013-08-31 03:28:00,
2013-08-30 23:33:00,80.8,67.9,29.65,SW,225,3.4,3.4,65,0.00,,CLR,0.00,VWS V14.01,2013-08-31 03:33:00,
2013-08-30 23:38:00,80.8,67.9,29.65,SW,225,3.4,3.4,65,0.00,,CLR,0.00,VWS V14.01,2013-08-31 03:38:00,
2013-08-30 23:43:00,80.8,67.9,29.65,SW,225,3.4,3.4,65,0.00,,CLR,0.00,VWS V14.01,2013-08-31 03:43:00,
2013-08-30 23:48:00,80.8,67.9,29.65,SW,225,3.4,3.4,65,0.00,,CLR,0.00,VWS V14.01,2013-08-31 03:48:00,
2013-08-30 23:53:00,80.8,67.9,29.65,SW,225,3.4,3.4,65,0.00,,CLR,0.00,VWS V14.01,2013-08-31 03:53:00,
2013-08-30 23:58:00,80.8,67.9,29.65,SW,225,3.4,3.4,65,0.00,,CLR,0.00,VWS V14.01,2013-08-31 03:58:00,